Time;durP1;ratioP1;P1;durP2;ratioP2;P2;SDS_P1;SDS_P2;PMS_P1;PMS_P2;Temp;Humidity;BMP_temperature;BMP_pressure;BME280_temperature;BME280_humidity;BME280_pressure;Samples;Min_cycle;Max_cycle;Signal;HPM_P1;HPM_P2
2023/12/21 00:02:07;;;;;;;;;;;;;;;;;;5115313;28;19928;-43
2023/12/21 00:04:33;;;;;;;;;;;;;;;;;;5114740;28;20298;-43
2023/12/21 00:07:00;;;;;;;;;;;;;;;;;;5115563;28;19955;-44
2023/12/21 00:09:27;;;;;;;;;;;;;;;;;;5114837;28;19923;-41
2023/12/21 00:11:53;;;;;;;;;;;;;;;;;;5115405;28;19972;-41
2023/12/21 00:14:19;;;;;;;;;;;;;;;;;;5114691;28;19924;-41
2023/12/21 00:16:45;;;;;;;;;;;;;;;;;;5115168;28;19972;-43
2023/12/21 00:19:11;;;;;;;;;;;;;;;;;;5114365;28;19927;-41
2023/12/21 00:21:38;;;;;;;;;;;;;;;;;;5114221;28;19924;-44
2023/12/21 00:24:04;;;;;;;;;;;;;;;;;;5114504;28;19977;-41
2023/12/21 00:26:30;;;;;;;;;;;;;;;;;;5114998;28;19927;-42
2023/12/21 00:28:56;;;;;;;;;;;;;;;;;;5114771;28;19928;-44
2023/12/21 00:31:22;;;;;;;;;;;;;;;;;;5114719;28;20059;-43
2023/12/21 00:33:48;;;;;;;;;;;;;;;;;;5114878;28;19927;-43
2023/12/21 00:36:15;;;;;;;;;;;;;;;;;;5114527;28;20381;-44
2023/12/21 00:38:41;;;;;;;;;;;;;;;;;;5114602;28;20459;-42
2023/12/21 00:41:07;;;;;;;;;;;;;;;;;;5114493;28;20427;-41
2023/12/21 00:43:33;;;;;;;;;;;;;;;;;;5114446;28;20138;-43
2023/12/21 00:45:59;;;;;;;;;;;;;;;;;;5114568;28;19924;-41
2023/12/21 00:48:25;;;;;;;;;;;;;;;;;;5114571;28;19928;-43
2023/12/21 00:50:52;;;;;;;;;;;;;;;;;;5114591;28;19973;-44
2023/12/21 00:53:19;;;;;;;;;;;;;;;;;;5113591;28;19924;-43
2023/12/21 00:55:45;;;;;;;;;;;;;;;;;;5114155;28;19927;-41
2023/12/21 00:58:11;;;;;;;;;;;;;;;;;;5113824;28;19923;-43
2023/12/21 01:00:37;;;;;;;;;;;;;;;;;;5113593;28;20364;-43
2023/12/21 01:03:03;;;;;;;;;;;;;;;;;;5114266;28;19930;-42
2023/12/21 01:05:30;;;;;;;;;;;;;;;;;;5113666;28;19930;-42
2023/12/21 01:07:56;;;;;;;;;;;;;;;;;;5114447;28;19928;-43
2023/12/21 01:10:22;;;;;;;;;;;;;;;;;;5114209;28;19971;-43
2023/12/21 01:12:48;;;;;;;;;;;;;;;;;;5114300;28;19969;-43
2023/12/21 01:15:14;;;;;;;;;;;;;;;;;;5114075;28;19924;-45
2023/12/21 01:17:40;;;;;;;;;;;;;;;;;;5114370;28;19977;-44
2023/12/21 01:20:06;;;;;;;;;;;;;;;;;;5114126;28;19924;-41
2023/12/21 01:22:33;;;;;;;;;;;;;;;;;;5113305;28;20384;-42
2023/12/21 01:24:59;;;;;;;;;;;;;;;;;;5113920;28;19970;-43
2023/12/21 01:27:25;;;;;;;;;;;;;;;;;;5113522;28;19928;-43
2023/12/21 01:29:57;;;;;;;;;;;;;;;;;;5114039;28;19924;-41
2023/12/21 01:32:23;;;;;;;;;;;;;;;;;;5114123;28;19940;-42
2023/12/21 01:34:50;;;;;;;;;;;;;;;;;;5113806;28;19928;-42
2023/12/21 01:37:16;;;;;;;;;;;;;;;;;;5113985;28;19927;-44
2023/12/21 01:39:42;;;;;;;;;;;;;;;;;;5113226;28;19924;-41
2023/12/21 01:42:08;;;;;;;;;;;;;;;;;;5113530;28;19924;-41
2023/12/21 01:44:34;;;;;;;;;;;;;;;;;;5113742;27;19924;-42
2023/12/21 01:47:01;;;;;;;;;;;;;;;;;;5113972;28;19928;-43
2023/12/21 01:49:27;;;;;;;;;;;;;;;;;;5113607;28;19973;-42
2023/12/21 01:51:53;;;;;;;;;;;;;;;;;;5113686;28;19924;-41
2023/12/21 01:54:19;;;;;;;;;;;;;;;;;;5113137;28;19923;-42
2023/12/21 01:56:45;;;;;;;;;;;;;;;;;;5113313;28;20554;-41
2023/12/21 01:59:11;;;;;;;;;;;;;;;;;;5113409;28;19950;-42
2023/12/21 02:01:37;;;;;;;;;;;;;;;;;;5113633;28;19949;-41
2023/12/21 02:04:04;;;;;;;;;;;;;;;;;;5113596;28;19930;-42
2023/12/21 02:06:30;;;;;;;;;;;;;;;;;;5113495;28;19972;-41
2023/12/21 02:08:56;;;;;;;;;;;;;;;;;;5113291;28;19927;-43
2023/12/21 02:11:22;;;;;;;;;;;;;;;;;;5113364;28;19959;-42
2023/12/21 02:13:48;;;;;;;;;;;;;;;;;;5113501;28;20309;-42
2023/12/21 02:16:15;;;;;;;;;;;;;;;;;;5113226;28;19927;-44
2023/12/21 02:18:41;;;;;;;;;;;;;;;;;;5113302;28;19924;-44
2023/12/21 02:21:07;;;;;;;;;;;;;;;;;;5113352;28;19923;-43
2023/12/21 02:23:33;;;;;;;;;;;;;;;;;;5112852;28;19928;-41
2023/12/21 02:26:00;;;;;;;;;;;;;;;;;;5112872;28;19948;-42
2023/12/21 02:28:26;;;;;;;;;;;;;;;;;;5112259;28;19928;-41
2023/12/21 02:30:52;;;;;;;;;;;;;;;;;;5112870;28;19923;-43
2023/12/21 02:33:18;;;;;;;;;;;;;;;;;;5112420;28;20360;-42
2023/12/21 02:35:45;;;;;;;;;;;;;;;;;;5112639;28;19927;-42
2023/12/21 02:38:11;;;;;;;;;;;;;;;;;;5113073;28;19963;-41
2023/12/21 02:40:37;;;;;;;;;;;;;;;;;;5112718;28;19927;-44
2023/12/21 02:43:03;;;;;;;;;;;;;;;;;;5113165;28;20011;-41
2023/12/21 02:45:29;;;;;;;;;;;;;;;;;;5112926;28;19930;-42
2023/12/21 02:47:55;;;;;;;;;;;;;;;;;;5113225;28;19928;-41
2023/12/21 02:50:22;;;;;;;;;;;;;;;;;;5112995;28;19973;-44
2023/12/21 02:52:48;;;;;;;;;;;;;;;;;;5113088;28;19924;-44
2023/12/21 02:55:14;;;;;;;;;;;;;;;;;;5112580;28;20355;-41
2023/12/21 02:57:40;;;;;;;;;;;;;;;;;;5112502;28;19924;-43
2023/12/21 03:00:07;;;;;;;;;;;;;;;;;;5112802;28;19947;-43
2023/12/21 03:02:34;;;;;;;;;;;;;;;;;;5112601;28;19931;-43
2023/12/21 03:05:00;;;;;;;;;;;;;;;;;;5112913;28;20012;-43
2023/12/21 03:07:26;;;;;;;;;;;;;;;;;;5112169;28;19928;-43
2023/12/21 03:09:52;;;;;;;;;;;;;;;;;;5111972;28;19947;-42
2023/12/21 03:12:19;;;;;;;;;;;;;;;;;;5112337;28;19928;-41
2023/12/21 03:14:45;;;;;;;;;;;;;;;;;;5111974;28;19923;-42
2023/12/21 03:17:11;;;;;;;;;;;;;;;;;;5112447;28;19969;-43
2023/12/21 03:19:37;;;;;;;;;;;;;;;;;;5111711;28;19976;-44
2023/12/21 03:22:03;;;;;;;;;;;;;;;;;;5112322;28;19923;-42
2023/12/21 03:24:29;;;;;;;;;;;;;;;;;;5111871;28;19927;-43
2023/12/21 03:26:56;;;;;;;;;;;;;;;;;;5111835;28;19924;-43
2023/12/21 03:29:22;;;;;;;;;;;;;;;;;;5114982;28;19927;-41
2023/12/21 03:31:48;;;;;;;;;;;;;;;;;;5115579;28;19924;-44
2023/12/21 03:34:14;;;;;;;;;;;;;;;;;;5115976;28;20382;-41
2023/12/21 03:36:40;;;;;;;;;;;;;;;;;;5115499;28;19927;-41
2023/12/21 03:39:07;;;;;;;;;;;;;;;;;;5115595;28;20095;-42
2023/12/21 03:41:33;;;;;;;;;;;;;;;;;;5115969;28;19931;-42
2023/12/21 03:43:59;;;;;;;;;;;;;;;;;;5115752;28;19924;-43
2023/12/21 03:46:25;;;;;;;;;;;;;;;;;;5115216;28;19924;-41
2023/12/21 03:48:51;;;;;;;;;;;;;;;;;;5115272;28;20292;-41
2023/12/21 03:51:17;;;;;;;;;;;;;;;;;;5115394;28;19931;-42
2023/12/21 03:53:43;;;;;;;;;;;;;;;;;;5115921;28;19931;-41
2023/12/21 03:56:10;;;;;;;;;;;;;;;;;;5115809;28;20013;-44
2023/12/21 03:58:37;;;;;;;;;;;;;;;;;;5115436;28;19983;-41
2023/12/21 04:01:03;;;;;;;;;;;;;;;;;;5115675;27;20027;-41
2023/12/21 04:03:30;;;;;;;;;;;;;;;;;;5115777;28;19928;-41
2023/12/21 04:05:56;;;;;;;;;;;;;;;;;;5115873;28;19924;-41
2023/12/21 04:08:22;;;;;;;;;;;;;;;;;;5115887;28;20022;-43
2023/12/21 04:10:48;;;;;;;;;;;;;;;;;;5115486;28;19924;-42
2023/12/21 04:13:14;;;;;;;;;;;;;;;;;;5115776;28;19923;-42
2023/12/21 04:15:41;;;;;;;;;;;;;;;;;;5115260;28;19924;-41
2023/12/21 04:18:07;;;;;;;;;;;;;;;;;;5115246;28;19954;-41
2023/12/21 04:20:33;;;;;;;;;;;;;;;;;;5114569;28;19946;-42
2023/12/21 04:22:59;;;;;;;;;;;;;;;;;;5114896;28;20078;-43
2023/12/21 04:25:25;;;;;;;;;;;;;;;;;;5114765;27;19953;-43
2023/12/21 04:27:52;;;;;;;;;;;;;;;;;;5114870;28;19974;-43
2023/12/21 04:30:19;;;;;;;;;;;;;;;;;;5114971;28;19928;-44
2023/12/21 04:32:45;;;;;;;;;;;;;;;;;;5113300;28;19927;-43
2023/12/21 04:35:11;;;;;;;;;;;;;;;;;;5115035;28;19930;-44
2023/12/21 04:37:38;;;;;;;;;;;;;;;;;;5114653;27;19927;-41
2023/12/21 04:40:04;;;;;;;;;;;;;;;;;;5113109;28;19984;-43
2023/12/21 04:42:30;;;;;;;;;;;;;;;;;;5114654;28;20244;-41
2023/12/21 04:44:56;;;;;;;;;;;;;;;;;;5114287;28;19932;-41
2023/12/21 04:47:23;;;;;;;;;;;;;;;;;;5114407;28;19924;-42
2023/12/21 04:49:49;;;;;;;;;;;;;;;;;;5114161;28;19928;-41
2023/12/21 04:52:15;;;;;;;;;;;;;;;;;;5114131;28;20348;-41
2023/12/21 04:54:42;;;;;;;;;;;;;;;;;;5114080;28;19930;-43
2023/12/21 04:57:08;;;;;;;;;;;;;;;;;;5114215;28;19935;-41
2023/12/21 04:59:34;;;;;;;;;;;;;;;;;;5114306;28;19932;-41
2023/12/21 05:02:00;;;;;;;;;;;;;;;;;;5113865;28;19975;-45
2023/12/21 05:04:26;;;;;;;;;;;;;;;;;;5114267;28;19959;-42
2023/12/21 05:06:53;;;;;;;;;;;;;;;;;;5114677;28;19924;-43
2023/12/21 05:09:19;;;;;;;;;;;;;;;;;;5114454;28;19927;-40
2023/12/21 05:11:45;;;;;;;;;;;;;;;;;;5114068;28;19924;-42
2023/12/21 05:14:11;;;;;;;;;;;;;;;;;;5114487;27;19923;-42
2023/12/21 05:16:37;;;;;;;;;;;;;;;;;;5113935;28;19928;-41
2023/12/21 05:19:03;;;;;;;;;;;;;;;;;;5113393;28;19923;-42
2023/12/21 05:21:30;;;;;;;;;;;;;;;;;;5113547;28;20484;-42
2023/12/21 05:23:56;;;;;;;;;;;;;;;;;;5113420;28;20424;-41
2023/12/21 05:26:22;;;;;;;;;;;;;;;;;;5113401;28;19924;-43
2023/12/21 05:28:48;;;;;;;;;;;;;;;;;;5112922;28;19989;-44
2023/12/21 05:31:14;;;;;;;;;;;;;;;;;;5113486;28;19930;-43
2023/12/21 05:33:41;;;;;;;;;;;;;;;;;;5113173;28;19930;-43
2023/12/21 05:36:07;;;;;;;;;;;;;;;;;;5113281;27;20033;-41
2023/12/21 05:38:34;;;;;;;;;;;;;;;;;;5113710;28;19988;-44
2023/12/21 05:41:00;;;;;;;;;;;;;;;;;;5113285;28;19976;-41
2023/12/21 05:43:26;;;;;;;;;;;;;;;;;;5113425;28;19990;-43
2023/12/21 05:45:52;;;;;;;;;;;;;;;;;;5113135;28;19928;-43
2023/12/21 05:48:18;;;;;;;;;;;;;;;;;;5113296;28;19924;-44
2023/12/21 05:50:45;;;;;;;;;;;;;;;;;;5113095;28;19969;-44
2023/12/21 05:53:12;;;;;;;;;;;;;;;;;;5112374;28;22317;-41
2023/12/21 05:55:38;;;;;;;;;;;;;;;;;;5112987;28;20371;-42
2023/12/21 05:58:05;;;;;;;;;;;;;;;;;;5113664;28;19931;-41
2023/12/21 06:00:31;;;;;;;;;;;;;;;;;;5113405;28;19931;-41
2023/12/21 06:02:57;;;;;;;;;;;;;;;;;;5113144;27;19924;-42
2023/12/21 06:05:23;;;;;;;;;;;;;;;;;;5113701;28;19927;-42
2023/12/21 06:07:50;;;;;;;;;;;;;;;;;;5113564;28;20347;-43
2023/12/21 06:10:16;;;;;;;;;;;;;;;;;;5113361;28;19924;-40
2023/12/21 06:12:42;;;;;;;;;;;;;;;;;;5113626;28;20274;-42
2023/12/21 06:15:08;;;;;;;;;;;;;;;;;;5113027;28;19928;-41
2023/12/21 06:17:34;;;;;;;;;;;;;;;;;;5112044;28;19927;-42
2023/12/21 06:20:01;;;;;;;;;;;;;;;;;;5100000;28;20288;-41
2023/12/21 06:22:27;;;;;;;;;;;;;;;;;;5109755;28;19934;-41
2023/12/21 06:24:54;;;;;;;;;;;;;;;;;;5113308;28;20359;-42
2023/12/21 06:27:20;;;;;;;;;;;;;;;;;;5113233;28;19924;-45
2023/12/21 06:29:46;;;;;;;;;;;;;;;;;;5113221;28;19951;-44
2023/12/21 06:32:12;;;;;;;;;;;;;;;;;;5112738;28;20388;-41
2023/12/21 06:34:39;;;;;;;;;;;;;;;;;;5112937;28;20268;-44
2023/12/21 06:37:05;;;;;;;;;;;;;;;;;;5113105;28;19989;-41
2023/12/21 06:39:32;;;;;;;;;;;;;;;;;;5113055;28;20077;-43
2023/12/21 06:41:59;;;;;;;;;;;;;;;;;;5112987;28;19928;-43
2023/12/21 06:44:25;;;;;;;;;;;;;;;;;;5112003;28;19977;-41
2023/12/21 06:46:51;;;;;;;;;;;;;;;;;;5112239;28;19946;-42
2023/12/21 06:49:17;;;;;;;;;;;;;;;;;;5112069;28;19927;-42
2023/12/21 06:51:44;;;;;;;;;;;;;;;;;;5111921;28;19923;-44
2023/12/21 06:54:11;;;;;;;;;;;;;;;;;;5112212;28;19931;-43
2023/12/21 06:56:37;;;;;;;;;;;;;;;;;;5112031;28;19963;-42
2023/12/21 06:59:04;;;;;;;;;;;;;;;;;;5112248;28;20339;-45
2023/12/21 07:01:30;;;;;;;;;;;;;;;;;;5110994;28;20299;-43
2023/12/21 07:03:56;;;;;;;;;;;;;;;;;;5114532;28;19946;-42
2023/12/21 07:06:23;;;;;;;;;;;;;;;;;;5116754;27;19980;-42
2023/12/21 07:08:50;;;;;;;;;;;;;;;;;;5115712;28;20261;-42
2023/12/21 07:11:17;;;;;;;;;;;;;;;;;;5116077;28;20330;-42
2023/12/21 07:13:43;;;;;;;;;;;;;;;;;;5114890;28;19931;-42
2023/12/21 07:16:09;;;;;;;;;;;;;;;;;;5115446;28;19930;-42
2023/12/21 07:18:35;;;;;;;;;;;;;;;;;;5115642;28;19947;-43
2023/12/21 07:21:02;;;;;;;;;;;;;;;;;;5115809;28;19928;-43
2023/12/21 07:23:28;;;;;;;;;;;;;;;;;;5116230;28;19935;-42
2023/12/21 07:25:54;;;;;;;;;;;;;;;;;;5116387;28;19926;-43
2023/12/21 07:28:21;;;;;;;;;;;;;;;;;;5115815;28;20259;-41
2023/12/21 07:30:47;;;;;;;;;;;;;;;;;;5116127;28;20367;-44
2023/12/21 07:33:13;;;;;;;;;;;;;;;;;;5115314;28;19934;-41
2023/12/21 07:35:39;;;;;;;;;;;;;;;;;;5115698;28;19927;-43
2023/12/21 07:38:05;;;;;;;;;;;;;;;;;;5115552;28;19945;-42
2023/12/21 07:40:31;;;;;;;;;;;;;;;;;;5114859;28;19953;-42
2023/12/21 07:42:58;;;;;;;;;;;;;;;;;;5115218;28;20317;-42
2023/12/21 07:45:24;;;;;;;;;;;;;;;;;;5115422;28;19935;-41
2023/12/21 07:47:50;;;;;;;;;;;;;;;;;;5115575;28;19963;-42
2023/12/21 07:50:16;;;;;;;;;;;;;;;;;;5115791;28;19924;-41
2023/12/21 07:52:42;;;;;;;;;;;;;;;;;;5109669;28;20490;-42
2023/12/21 07:55:08;;;;;;;;;;;;;;;;;;5104194;28;20388;-42
2023/12/21 07:57:35;;;;;;;;;;;;;;;;;;5098928;28;19973;-43
2023/12/21 08:00:01;;;;;;;;;;;;;;;;;;5098545;28;20053;-42
2023/12/21 08:02:27;;;;;;;;;;;;;;;;;;5098231;28;19985;-43
2023/12/21 08:04:53;;;;;;;;;;;;;;;;;;5098885;28;20088;-42
2023/12/21 08:07:20;;;;;;;;;;;;;;;;;;5098924;28;19934;-42
2023/12/21 08:09:46;;;;;;;;;;;;;;;;;;5098185;28;19986;-42
2023/12/21 08:12:14;;;;;;;;;;;;;;;;;;5098780;27;19973;-41
2023/12/21 08:14:40;;;;;;;;;;;;;;;;;;5092629;28;21083;-41
2023/12/21 08:17:09;;;;;;;;;;;;;;;;;;5088064;28;19971;-42
2023/12/21 08:19:36;;;;;;;;;;;;;;;;;;5088860;28;19927;-41
2023/12/21 08:22:02;;;;;;;;;;;;;;;;;;5088010;28;19928;-42
2023/12/21 08:24:28;;;;;;;;;;;;;;;;;;5088599;28;19932;-41
2023/12/21 08:26:54;;;;;;;;;;;;;;;;;;5088434;28;20088;-42
2023/12/21 08:29:20;;;;;;;;;;;;;;;;;;5087068;28;20078;-44
2023/12/21 08:31:47;;;;;;;;;;;;;;;;;;5086567;27;19954;-42
2023/12/21 08:34:13;;;;;;;;;;;;;;;;;;5086136;27;20020;-41
2023/12/21 08:36:39;;;;;;;;;;;;;;;;;;5087550;27;19939;-42
2023/12/21 08:39:05;;;;;;;;;;;;;;;;;;5084745;27;20011;-42
2023/12/21 08:41:32;;;;;;;;;;;;;;;;;;5084976;27;21262;-42
2023/12/21 08:43:58;;;;;;;;;;;;;;;;;;5085237;28;20542;-42
2023/12/21 08:46:24;;;;;;;;;;;;;;;;;;5083731;27;20316;-41
2023/12/21 08:48:50;;;;;;;;;;;;;;;;;;5084392;27;19951;-42
2023/12/21 08:51:16;;;;;;;;;;;;;;;;;;5084476;27;20388;-42
2023/12/21 08:53:45;;;;;;;;;;;;;;;;;;5084456;28;19951;-43
2023/12/21 08:56:13;;;;;;;;;;;;;;;;;;5096316;27;20440;-44
2023/12/21 08:58:39;;;;;;;;;;;;;;;;;;5097719;28;20307;-41
2023/12/21 09:01:06;;;;;;;;;;;;;;;;;;5097601;28;19934;-41
2023/12/21 09:03:32;;;;;;;;;;;;;;;;;;5097287;28;20022;-41
2023/12/21 09:05:58;;;;;;;;;;;;;;;;;;5096879;28;19928;-40
2023/12/21 09:08:25;;;;;;;;;;;;;;;;;;5097058;28;20379;-42
2023/12/21 09:10:51;;;;;;;;;;;;;;;;;;5097629;28;19989;-42
2023/12/21 09:13:17;;;;;;;;;;;;;;;;;;5097411;28;19938;-45
2023/12/21 09:15:44;;;;;;;;;;;;;;;;;;5104530;28;19924;-43
2023/12/21 09:18:12;;;;;;;;;;;;;;;;;;5114226;28;19931;-43
2023/12/21 09:20:38;;;;;;;;;;;;;;;;;;5113294;28;19930;-44
2023/12/21 09:23:04;;;;;;;;;;;;;;;;;;5113432;28;20001;-43
2023/12/21 09:25:30;;;;;;;;;;;;;;;;;;5103055;28;20332;-43
2023/12/21 09:27:58;;;;;;;;;;;;;;;;;;5093654;28;19928;-43
2023/12/21 09:30:26;;;;;;;;;;;;;;;;;;5114075;28;19928;-40
2023/12/21 09:32:52;;;;;;;;;;;;;;;;;;5114223;28;19930;-41
2023/12/21 09:35:19;;;;;;;;;;;;;;;;;;5105922;28;19923;-42
2023/12/21 09:37:46;;;;;;;;;;;;;;;;;;5113441;28;19967;-45
2023/12/21 09:40:13;;;;;;;;;;;;;;;;;;5113108;28;19931;-41
2023/12/21 09:42:39;;;;;;;;;;;;;;;;;;5113855;28;19930;-42
2023/12/21 09:45:05;;;;;;;;;;;;;;;;;;5113404;28;20347;-41
2023/12/21 09:47:31;;;;;;;;;;;;;;;;;;5113873;27;19972;-42
2023/12/21 09:49:58;;;;;;;;;;;;;;;;;;5113778;28;19924;-41
2023/12/21 09:52:24;;;;;;;;;;;;;;;;;;5113748;28;19935;-41
2023/12/21 09:54:50;;;;;;;;;;;;;;;;;;5113765;28;19992;-42
2023/12/21 09:57:16;;;;;;;;;;;;;;;;;;5113648;28;19927;-42
2023/12/21 09:59:42;;;;;;;;;;;;;;;;;;5113930;28;19924;-42
2023/12/21 10:02:12;;;;;;;;;;;;;;;;;;5113700;28;19932;-42
2023/12/21 10:04:38;;;;;;;;;;;;;;;;;;5113187;28;19930;-42
2023/12/21 10:07:04;;;;;;;;;;;;;;;;;;5113556;28;19931;-42
2023/12/21 10:09:31;;;;;;;;;;;;;;;;;;5112628;28;19924;-41
2023/12/21 10:11:57;;;;;;;;;;;;;;;;;;5112680;28;20379;-42
2023/12/21 10:14:24;;;;;;;;;;;;;;;;;;5112890;28;20432;-40
2023/12/21 10:16:52;;;;;;;;;;;;;;;;;;5113085;28;19924;-43
2023/12/21 10:19:18;;;;;;;;;;;;;;;;;;5112287;28;20364;-43
2023/12/21 10:21:46;;;;;;;;;;;;;;;;;;5112964;28;19931;-41
2023/12/21 10:24:12;;;;;;;;;;;;;;;;;;5112753;28;19931;-42
2023/12/21 10:26:38;;;;;;;;;;;;;;;;;;5113094;28;19924;-43
2023/12/21 10:29:06;;;;;;;;;;;;;;;;;;5113043;28;19973;-43
2023/12/21 10:31:32;;;;;;;;;;;;;;;;;;5110645;28;20367;-41
2023/12/21 10:33:58;;;;;;;;;;;;;;;;;;5113040;28;19924;-43
2023/12/21 10:36:25;;;;;;;;;;;;;;;;;;5112570;28;19923;-41
2023/12/21 10:38:51;;;;;;;;;;;;;;;;;;5115365;28;20341;-43
2023/12/21 10:41:18;;;;;;;;;;;;;;;;;;5117204;28;19963;-41
2023/12/21 10:43:45;;;;;;;;;;;;;;;;;;5116916;28;19927;-44
2023/12/21 10:46:11;;;;;;;;;;;;;;;;;;5117068;28;19987;-42
2023/12/21 10:48:38;;;;;;;;;;;;;;;;;;5116399;28;20310;-46
2023/12/21 10:51:04;;;;;;;;;;;;;;;;;;5116715;28;19963;-44
2023/12/21 10:53:30;;;;;;;;;;;;;;;;;;5116895;28;19927;-43
2023/12/21 10:55:57;;;;;;;;;;;;;;;;;;5117004;28;19924;-46
2023/12/21 10:58:23;;;;;;;;;;;;;;;;;;5116754;28;19927;-43
2023/12/21 11:00:49;;;;;;;;;;;;;;;;;;5116585;28;19969;-42
2023/12/21 11:03:16;;;;;;;;;;;;;;;;;;5116120;28;19931;-44
2023/12/21 11:05:43;;;;;;;;;;;;;;;;;;5116493;28;19928;-41
2023/12/21 11:08:09;;;;;;;;;;;;;;;;;;5116302;28;19924;-42
2023/12/21 11:10:35;;;;;;;;;;;;;;;;;;5116425;28;19930;-43
2023/12/21 11:13:02;;;;;;;;;;;;;;;;;;5116621;28;19923;-44
2023/12/21 11:15:28;;;;;;;;;;;;;;;;;;5116137;28;19924;-43
2023/12/21 11:17:54;;;;;;;;;;;;;;;;;;5116502;28;19979;-43
2023/12/21 11:20:21;;;;;;;;;;;;;;;;;;5116633;28;19931;-41
2023/12/21 11:22:54;;;;;;;;;;;;;;;;;;5116685;28;20291;-41
2023/12/21 11:25:20;;;;;;;;;;;;;;;;;;5116633;28;19935;-42
2023/12/21 11:27:47;;;;;;;;;;;;;;;;;;5115701;28;19931;-43
2023/12/21 11:30:14;;;;;;;;;;;;;;;;;;5115771;28;20043;-43
2023/12/21 11:32:41;;;;;;;;;;;;;;;;;;5116209;28;19924;-45
2023/12/21 11:35:07;;;;;;;;;;;;;;;;;;5115983;28;19923;-43
2023/12/21 11:37:34;;;;;;;;;;;;;;;;;;5116359;28;19931;-43
2023/12/21 11:40:04;;;;;;;;;;;;;;;;;;5114997;28;19927;-41
2023/12/21 11:42:30;;;;;;;;;;;;;;;;;;5115105;28;19938;-42
2023/12/21 11:44:56;;;;;;;;;;;;;;;;;;5114240;28;19931;-41
2023/12/21 11:47:22;;;;;;;;;;;;;;;;;;5114779;28;19924;-41
2023/12/21 11:49:48;;;;;;;;;;;;;;;;;;5114439;28;19928;-42
2023/12/21 11:52:15;;;;;;;;;;;;;;;;;;5114942;28;19928;-43
2023/12/21 11:54:41;;;;;;;;;;;;;;;;;;5114454;28;20119;-42
2023/12/21 11:57:07;;;;;;;;;;;;;;;;;;5114932;28;19923;-44
2023/12/21 11:59:33;;;;;;;;;;;;;;;;;;5114210;28;19924;-41
2023/12/21 12:01:59;;;;;;;;;;;;;;;;;;5114758;28;19931;-44
2023/12/21 12:04:25;;;;;;;;;;;;;;;;;;5115298;28;20383;-42
2023/12/21 12:06:52;;;;;;;;;;;;;;;;;;5114429;28;19934;-43
2023/12/21 12:09:19;;;;;;;;;;;;;;;;;;5114898;27;19949;-41
2023/12/21 12:11:46;;;;;;;;;;;;;;;;;;5115679;28;19973;-41
2023/12/21 12:14:12;;;;;;;;;;;;;;;;;;5115277;28;19931;-44
2023/12/21 12:16:38;;;;;;;;;;;;;;;;;;5114752;28;19963;-45
2023/12/21 12:19:04;;;;;;;;;;;;;;;;;;5114972;28;19931;-43
2023/12/21 12:21:31;;;;;;;;;;;;;;;;;;5115042;28;19928;-45
2023/12/21 12:23:57;;;;;;;;;;;;;;;;;;5115027;28;19977;-43
2023/12/21 12:26:23;;;;;;;;;;;;;;;;;;5114793;28;19924;-42
2023/12/21 12:28:49;;;;;;;;;;;;;;;;;;5114494;28;19931;-44
2023/12/21 12:31:16;;;;;;;;;;;;;;;;;;5114947;28;19930;-43
2023/12/21 12:33:43;;;;;;;;;;;;;;;;;;5114663;28;19924;-44
2023/12/21 12:36:09;;;;;;;;;;;;;;;;;;5114605;28;20272;-42
2023/12/21 12:38:35;;;;;;;;;;;;;;;;;;5114795;28;19963;-42
2023/12/21 12:41:02;;;;;;;;;;;;;;;;;;5114365;28;20047;-43
2023/12/21 12:43:34;;;;;;;;;;;;;;;;;;5114854;28;19923;-43
2023/12/21 12:46:00;;;;;;;;;;;;;;;;;;5114080;28;20341;-44
2023/12/21 12:48:26;;;;;;;;;;;;;;;;;;5114751;28;19989;-43
2023/12/21 12:50:52;;;;;;;;;;;;;;;;;;5115052;28;19932;-44
2023/12/21 12:53:19;;;;;;;;;;;;;;;;;;5114960;28;19984;-43
2023/12/21 12:55:45;;;;;;;;;;;;;;;;;;5114646;28;19989;-41
2023/12/21 12:58:12;;;;;;;;;;;;;;;;;;5114361;28;19945;-42
2023/12/21 13:00:38;;;;;;;;;;;;;;;;;;5113590;28;19924;-45
2023/12/21 13:03:04;;;;;;;;;;;;;;;;;;5114670;28;19971;-41
2023/12/21 13:05:30;;;;;;;;;;;;;;;;;;5114379;28;19928;-41
2023/12/21 13:07:56;;;;;;;;;;;;;;;;;;5114585;28;19931;-42
2023/12/21 13:10:23;;;;;;;;;;;;;;;;;;5114485;28;19935;-42
2023/12/21 13:12:49;;;;;;;;;;;;;;;;;;5114388;28;19927;-42
2023/12/21 13:15:15;;;;;;;;;;;;;;;;;;5114228;28;19927;-43
2023/12/21 13:17:41;;;;;;;;;;;;;;;;;;5114031;28;19924;-43
2023/12/21 13:20:09;;;;;;;;;;;;;;;;;;5114279;28;19971;-41
2023/12/21 13:22:35;;;;;;;;;;;;;;;;;;5114450;28;20011;-42
2023/12/21 13:25:02;;;;;;;;;;;;;;;;;;5114147;28;19931;-41
2023/12/21 13:27:28;;;;;;;;;;;;;;;;;;5114036;27;19934;-42
2023/12/21 13:29:54;;;;;;;;;;;;;;;;;;5113919;28;20007;-41
2023/12/21 13:32:20;;;;;;;;;;;;;;;;;;5113868;28;20283;-42
2023/12/21 13:34:46;;;;;;;;;;;;;;;;;;5113727;28;20330;-42
2023/12/21 13:37:12;;;;;;;;;;;;;;;;;;5113283;28;20477;-42
2023/12/21 13:39:38;;;;;;;;;;;;;;;;;;5113057;28;20336;-44
2023/12/21 13:42:06;;;;;;;;;;;;;;;;;;5113352;28;20244;-44
2023/12/21 13:44:32;;;;;;;;;;;;;;;;;;5112646;28;19927;-43
2023/12/21 13:46:58;;;;;;;;;;;;;;;;;;5112813;28;19928;-42
2023/12/21 13:49:25;;;;;;;;;;;;;;;;;;5113212;28;19946;-43
2023/12/21 13:51:51;;;;;;;;;;;;;;;;;;5112899;28;19928;-42
2023/12/21 13:54:21;;;;;;;;;;;;;;;;;;5112735;28;19958;-44
2023/12/21 13:56:47;;;;;;;;;;;;;;;;;;5112915;28;19945;-41
2023/12/21 13:59:18;;;;;;;;;;;;;;;;;;5112731;28;19971;-42
2023/12/21 14:01:44;;;;;;;;;;;;;;;;;;5112826;28;19980;-42
2023/12/21 14:04:10;;;;;;;;;;;;;;;;;;5113085;28;19928;-41
2023/12/21 14:06:36;;;;;;;;;;;;;;;;;;5112750;28;19930;-41
2023/12/21 14:09:03;;;;;;;;;;;;;;;;;;5112632;27;20375;-42
2023/12/21 14:11:29;;;;;;;;;;;;;;;;;;5112569;28;19931;-40
2023/12/21 14:13:55;;;;;;;;;;;;;;;;;;5112809;28;19924;-41
2023/12/21 14:16:21;;;;;;;;;;;;;;;;;;5112739;28;19949;-43
2023/12/21 14:18:47;;;;;;;;;;;;;;;;;;5112786;28;19923;-42
2023/12/21 14:21:14;;;;;;;;;;;;;;;;;;5112389;28;19939;-40
2023/12/21 14:23:40;;;;;;;;;;;;;;;;;;5112611;28;20004;-40
2023/12/21 14:26:08;;;;;;;;;;;;;;;;;;5112777;28;19924;-43
2023/12/21 14:28:34;;;;;;;;;;;;;;;;;;5112955;28;20325;-41
2023/12/21 14:31:08;;;;;;;;;;;;;;;;;;5112697;28;19923;-41
2023/12/21 14:33:35;;;;;;;;;;;;;;;;;;5112790;28;19923;-41
2023/12/21 14:36:01;;;;;;;;;;;;;;;;;;5113036;28;19963;-40
2023/12/21 14:38:27;;;;;;;;;;;;;;;;;;5112203;28;20367;-41
2023/12/21 14:40:53;;;;;;;;;;;;;;;;;;5112699;28;20281;-40
2023/12/21 14:43:19;;;;;;;;;;;;;;;;;;5112774;28;19924;-42
2023/12/21 14:45:45;;;;;;;;;;;;;;;;;;5111625;28;19996;-40
2023/12/21 14:48:12;;;;;;;;;;;;;;;;;;5112111;28;19923;-41
2023/12/21 14:50:38;;;;;;;;;;;;;;;;;;5111361;28;19924;-42
2023/12/21 14:53:05;;;;;;;;;;;;;;;;;;5112142;28;19931;-41
2023/12/21 14:55:31;;;;;;;;;;;;;;;;;;5111984;28;19924;-42
2023/12/21 14:57:57;;;;;;;;;;;;;;;;;;5112443;28;20299;-40
2023/12/21 15:00:23;;;;;;;;;;;;;;;;;;5112142;28;19928;-41
2023/12/21 15:02:49;;;;;;;;;;;;;;;;;;5112613;28;19931;-41
2023/12/21 15:05:16;;;;;;;;;;;;;;;;;;5112652;28;19950;-41
2023/12/21 15:07:42;;;;;;;;;;;;;;;;;;5111626;28;20275;-42
2023/12/21 15:10:08;;;;;;;;;;;;;;;;;;5112371;28;19924;-40
2023/12/21 15:12:35;;;;;;;;;;;;;;;;;;5112436;28;19934;-40
2023/12/21 15:15:02;;;;;;;;;;;;;;;;;;5112328;28;19924;-43
2023/12/21 15:17:30;;;;;;;;;;;;;;;;;;5112539;28;19988;-41
2023/12/21 15:19:56;;;;;;;;;;;;;;;;;;5112288;28;19951;-43
2023/12/21 15:22:22;;;;;;;;;;;;;;;;;;5112068;28;19989;-41
2023/12/21 15:24:48;;;;;;;;;;;;;;;;;;5114750;28;19923;-41
2023/12/21 15:27:14;;;;;;;;;;;;;;;;;;5115991;28;19976;-41
2023/12/21 15:29:41;;;;;;;;;;;;;;;;;;5115649;27;20424;-43
2023/12/21 15:32:07;;;;;;;;;;;;;;;;;;5116304;27;20317;-40
2023/12/21 15:34:34;;;;;;;;;;;;;;;;;;5116557;28;19973;-41
2023/12/21 15:37:01;;;;;;;;;;;;;;;;;;5116434;28;19930;-42
2023/12/21 15:39:27;;;;;;;;;;;;;;;;;;5115591;28;20348;-41
2023/12/21 15:41:56;;;;;;;;;;;;;;;;;;5116309;28;19923;-41
2023/12/21 15:44:23;;;;;;;;;;;;;;;;;;5115537;28;19924;-40
2023/12/21 15:46:49;;;;;;;;;;;;;;;;;;5115657;28;19981;-42
2023/12/21 15:49:16;;;;;;;;;;;;;;;;;;5115365;28;19923;-42
2023/12/21 15:51:42;;;;;;;;;;;;;;;;;;5115267;28;19924;-41
2023/12/21 15:54:13;;;;;;;;;;;;;;;;;;5115745;28;20260;-42
2023/12/21 15:56:40;;;;;;;;;;;;;;;;;;5116143;28;19923;-40
2023/12/21 15:59:06;;;;;;;;;;;;;;;;;;5116187;28;19928;-42
2023/12/21 16:01:32;;;;;;;;;;;;;;;;;;5115873;28;19923;-41
2023/12/21 16:03:59;;;;;;;;;;;;;;;;;;5116050;28;19924;-40
2023/12/21 16:06:25;;;;;;;;;;;;;;;;;;5115971;28;19960;-43
2023/12/21 16:08:51;;;;;;;;;;;;;;;;;;5115082;28;19923;-41
2023/12/21 16:11:17;;;;;;;;;;;;;;;;;;5115797;28;20279;-41
2023/12/21 16:13:43;;;;;;;;;;;;;;;;;;5114983;28;19963;-40
2023/12/21 16:16:09;;;;;;;;;;;;;;;;;;5115270;28;19924;-40
2023/12/21 16:18:36;;;;;;;;;;;;;;;;;;5115598;28;19970;-41
2023/12/21 16:21:02;;;;;;;;;;;;;;;;;;5115508;28;19984;-41
2023/12/21 16:23:28;;;;;;;;;;;;;;;;;;5115537;28;20398;-41
2023/12/21 16:25:55;;;;;;;;;;;;;;;;;;5115366;28;20368;-43
2023/12/21 16:28:21;;;;;;;;;;;;;;;;;;5115331;28;20272;-43
2023/12/21 16:30:47;;;;;;;;;;;;;;;;;;5115428;28;19928;-42
2023/12/21 16:33:13;;;;;;;;;;;;;;;;;;5115419;28;20482;-42
2023/12/21 16:35:41;;;;;;;;;;;;;;;;;;5115260;28;20010;-42
2023/12/21 16:38:10;;;;;;;;;;;;;;;;;;5115341;28;19927;-40
2023/12/21 16:40:36;;;;;;;;;;;;;;;;;;5114724;28;19950;-41